Time;durP1;ratioP1;P1;durP2;ratioP2;P2;SDS_P1;SDS_P2;PMS_P1;PMS_P2;Temp;Humidity;BMP_temperature;BMP_pressure;BME280_temperature;BME280_humidity;BME280_pressure;Samples;Min_cycle;Max_cycle;Signal;HPM_P1;HPM_P2
2022/09/24 00:00:56;;;;;;;;;;;;;;;;;;5066824;28;20036;-89
2022/09/24 00:03:23;;;;;;;9.60;6.20;;;;;;;;;;5083774;28;19915;-90
2022/09/24 00:05:49;;;;;;;8.88;7.13;;;;;;;;;;5083164;28;20411;-89
2022/09/24 00:08:14;;;;;;;;;;;;;;;;;;5087660;28;20063;-88
2022/09/24 00:10:40;;;;;;;8.63;6.25;;;;;;;;;;5073263;28;19918;-88
2022/09/24 00:13:06;;;;;;;;;;;;;;;;;;5042052;28;20104;-88
2022/09/24 00:15:38;;;;;;;7.32;6.40;;;;;;;;;;5076501;28;20323;-89
2022/09/24 00:18:04;;;;;;;8.18;6.05;;;;;;;;;;5036999;28;20123;-87
2022/09/24 00:20:31;;;;;;;8.55;5.53;;;;;;;;;;5075568;28;20079;-89
2022/09/24 00:22:58;;;;;;;6.90;5.97;;;;;;;;;;5070907;28;20029;-88
2022/09/24 00:28:07;;;;;;;7.53;5.65;;;;;;;;;;5063090;28;19912;-89
2022/09/24 00:30:33;;;;;;;;;;;;;;;;;;5094979;28;20028;-89
2022/09/24 00:32:58;;;;;;;7.60;5.30;;;;;;;;;;5070457;28;19913;-89
2022/09/24 00:35:24;;;;;;;;;;;;;;;;;;5086466;28;20021;-88
2022/09/24 00:37:50;;;;;;;9.15;5.90;;;;;;;;;;5050234;28;19921;-89
2022/09/24 00:40:17;;;;;;;9.30;5.60;;;;;;;;;;5068008;28;20031;-89
2022/09/24 00:42:42;;;;;;;;;;;;;;;;;;5064110;28;20096;-89
2022/09/24 00:45:10;;;;;;;7.63;5.75;;;;;;;;;;5076279;28;20355;-89
2022/09/24 00:47:41;;;;;;;8.13;5.40;;;;;;;;;;5063134;28;20049;-90
2022/09/24 00:50:16;;;;;;;6.50;5.35;;;;;;;;;;5054207;28;20033;-88
2022/09/24 00:52:48;;;;;;;6.50;5.07;;;;;;;;;;5047349;28;20032;-88
2022/09/24 00:55:14;;;;;;;7.18;5.38;;;;;;;;;;5051980;28;20037;-89
2022/09/24 00:57:40;;;;;;;;;;;;;;;;;;5051175;28;20032;-89
2022/09/24 01:00:06;;;;;;;6.30;5.40;;;;;;;;;;5075912;28;19912;-87
2022/09/24 01:02:34;;;;;;;6.13;5.00;;;;;;;;;;5054849;28;20070;-88
2022/09/24 01:04:59;;;;;;;7.72;5.47;;;;;;;;;;5034652;28;20067;-88
2022/09/24 01:07:25;;;;;;;;;;;;;;;;;;5049195;28;20025;-89
2022/09/24 01:09:50;;;;;;;8.13;6.07;;;;;;;;;;5051973;28;19935;-88
2022/09/24 01:12:16;;;;;;;;;;;;;;;;;;5054327;28;20043;-88
2022/09/24 01:15:00;;;;;;;9.52;5.20;;;;;;;;;;5054519;28;19942;-89
2022/09/24 01:17:45;;;;;;;6.95;5.88;;;;;;;;;;5065376;28;20037;-88
2022/09/24 01:20:29;;;;;;;6.70;5.43;;;;;;;;;;5053621;28;20044;-89
2022/09/24 01:23:19;;;;;;;7.88;4.95;;;;;;;;;;5083925;28;20071;-89
2022/09/24 01:26:00;;;;;;;6.97;5.18;;;;;;;;;;5050563;28;20076;-90
2022/09/24 01:28:26;;;;;;;6.90;5.05;;;;;;;;;;5069603;28;20451;-89
2022/09/24 01:30:51;;;;;;;;;;;;;;;;;;5049620;28;20079;-89
2022/09/24 01:33:18;;;;;;;8.25;5.80;;;;;;;;;;5049470;28;20046;-87
2022/09/24 01:35:44;;;;;;;5.88;5.22;;;;;;;;;;5050792;28;20377;-87
2022/09/24 01:38:17;;;;;;;6.90;5.28;;;;;;;;;;5035571;28;20033;-87
2022/09/24 01:40:42;;;;;;;5.78;4.82;;;;;;;;;;5048655;28;20118;-89
2022/09/24 01:43:08;;;;;;;;;;;;;;;;;;5039755;28;20028;-88
2022/09/24 01:45:33;;;;;;;7.30;5.57;;;;;;;;;;5048627;28;19935;-88
2022/09/24 01:47:59;;;;;;;;;;;;;;;;;;5048356;28;20078;-88
2022/09/24 01:50:53;;;;;;;8.07;6.13;;;;;;;;;;5084530;28;20069;-87
2022/09/24 01:53:19;;;;;;;7.45;6.40;;;;;;;;;;5097263;28;20031;-88
2022/09/24 01:55:48;;;;;;;6.50;4.97;;;;;;;;;;5039230;28;20024;-88
2022/09/24 01:58:15;;;;;;;6.50;5.00;;;;;;;;;;5065416;28;20031;-88
2022/09/24 02:00:42;;;;;;;5.80;4.68;;;;;;;;;;5063000;28;20396;-89
2022/09/24 02:03:15;;;;;;;6.80;5.45;;;;;;;;;;5052164;28;20047;-87
2022/09/24 02:05:42;;;;;;;9.13;6.32;;;;;;;;;;5051999;28;20056;-88
2022/09/24 02:08:08;;;;;;;6.53;4.90;;;;;;;;;;5051210;28;20135;-88
2022/09/24 02:10:37;;;;;;;6.82;5.00;;;;;;;;;;5048688;28;20255;-88
2022/09/24 02:13:03;;;;;;;6.88;4.70;;;;;;;;;;5033050;28;20039;-89
2022/09/24 02:15:31;;;;;;;8.77;6.32;;;;;;;;;;5060404;28;20032;-88
2022/09/24 02:17:56;;;;;;;9.40;7.63;;;;;;;;;;5042136;28;20086;-88
2022/09/24 02:20:22;;;;;;;;;;;;;;;;;;5067268;28;20028;-88
2022/09/24 02:22:48;;;;;;;7.65;4.68;;;;;;;;;;5071266;28;19908;-87
2022/09/24 02:25:13;;;;;;;;;;;;;;;;;;5056275;28;20168;-88
2022/09/24 02:27:39;;;;;;;8.57;5.75;;;;;;;;;;5064762;28;20312;-88
2022/09/24 02:30:05;;;;;;;;;;;;;;;;;;5033494;28;20116;-89
2022/09/24 02:32:31;;;;;;;6.75;4.80;;;;;;;;;;5055122;28;20363;-88
2022/09/24 02:34:56;;;;;;;;;;;;;;;;;;5051504;28;20045;-87
2022/09/24 02:37:22;;;;;;;5.95;4.72;;;;;;;;;;5059612;28;19908;-88
2022/09/24 02:39:49;;;;;;;6.43;4.38;;;;;;;;;;5064360;28;20029;-86
2022/09/24 02:42:14;;;;;;;7.13;5.13;;;;;;;;;;5049087;28;20021;-88
2022/09/24 02:44:40;;;;;;;;;;;;;;;;;;5045567;28;20109;-87
2022/09/24 02:47:05;;;;;;;6.65;4.13;;;;;;;;;;5065030;28;20369;-88
2022/09/24 02:49:31;;;;;;;;;;;;;;;;;;5040701;28;20064;-88
2022/09/24 02:51:56;;;;;;;7.57;5.35;;;;;;;;;;5068877;28;19909;-88
2022/09/24 02:54:22;;;;;;;;;;;;;;;;;;5067016;28;20088;-88
2022/09/24 02:56:48;;;;;;;5.45;4.85;;;;;;;;;;5056724;28;19911;-88
2022/09/24 02:59:13;;;;;;;;;;;;;;;;;;5058152;28;20032;-89
2022/09/24 03:01:42;;;;;;;5.50;4.18;;;;;;;;;;5055770;28;19916;-86
2022/09/24 03:04:08;;;;;;;5.88;4.28;;;;;;;;;;5055426;28;20032;-88
2022/09/24 03:06:33;;;;;;;;;;;;;;;;;;5054052;28;20027;-86
2022/09/24 03:09:01;;;;;;;5.13;4.25;;;;;;;;;;5051293;28;19928;-87
2022/09/24 03:11:27;;;;;;;6.93;4.70;;;;;;;;;;5052898;28;20063;-86
2022/09/24 03:13:52;;;;;;;5.30;3.97;;;;;;;;;;5035000;28;20032;-88
2022/09/24 03:16:18;;;;;;;;;;;;;;;;;;5043165;28;20027;-88
2022/09/24 03:18:44;;;;;;;6.15;3.95;;;;;;;;;;5056569;28;19984;-89
2022/09/24 03:21:10;;;;;;;4.35;3.42;;;;;;;;;;5046785;28;20056;-88
2022/09/24 03:23:37;;;;;;;5.03;4.35;;;;;;;;;;5047669;28;20028;-87
2022/09/24 03:26:02;;;;;;;;;;;;;;;;;;5044045;28;20086;-87
2022/09/24 03:28:28;;;;;;;5.25;3.88;;;;;;;;;;5058757;28;19912;-89
2022/09/24 03:30:59;;;;;;;;;;;;;;;;;;5063257;28;20106;-87
2022/09/24 03:33:29;;;;;;;4.22;3.22;;;;;;;;;;5041523;28;19923;-88
2022/09/24 03:35:55;;;;;;;6.43;3.78;;;;;;;;;;5046557;28;20033;-87
2022/09/24 03:38:21;;;;;;;6.78;3.80;;;;;;;;;;5055195;28;20097;-89
2022/09/24 03:40:47;;;;;;;;;;;;;;;;;;5053947;28;19997;-88
2022/09/24 03:43:12;;;;;;;5.15;3.65;;;;;;;;;;5056413;28;19916;-88
2022/09/24 03:45:38;;;;;;;;;;;;;;;;;;5039069;28;20032;-88
2022/09/24 03:48:04;;;;;;;5.43;3.35;;;;;;;;;;5057635;28;19954;-89
2022/09/24 03:50:30;;;;;;;4.05;3.47;;;;;;;;;;5061833;28;20030;-90
2022/09/24 03:52:56;;;;;;;;;;;;;;;;;;5078298;28;20495;-90
2022/09/24 03:55:21;;;;;;;4.60;3.75;;;;;;;;;;5060084;28;19919;-89
2022/09/24 03:57:47;;;;;;;;;;;;;;;;;;5069435;28;20029;-89
2022/09/24 04:00:14;;;;;;;3.92;2.85;;;;;;;;;;5075307;28;19931;-88
2022/09/24 04:02:41;;;;;;;;;;;;;;;;;;5039682;28;20112;-89
2022/09/24 04:05:07;;;;;;;6.72;3.30;;;;;;;;;;5054563;28;19919;-88
2022/09/24 04:07:33;;;;;;;;;;;;;;;;;;5039951;28;20033;-87
2022/09/24 04:10:00;;;;;;;6.57;4.22;;;;;;;;;;5064822;28;19920;-88
2022/09/24 04:12:26;;;;;;;5.25;4.25;;;;;;;;;;5059690;28;20028;-89
2022/09/24 04:14:54;;;;;;;5.68;4.00;;;;;;;;;;5062460;28;20033;-88
2022/09/24 04:17:31;;;;;;;7.50;4.72;;;;;;;;;;5077508;28;20024;-87
2022/09/24 04:20:20;;;;;;;7.28;4.38;;;;;;;;;;5078438;28;20033;-89
2022/09/24 04:22:52;;;;;;;7.93;4.88;;;;;;;;;;5057186;28;20009;-89
2022/09/24 04:25:18;;;;;;;5.78;4.20;;;;;;;;;;5040461;28;20029;-88
2022/09/24 04:27:45;;;;;;;;;;;;;;;;;;5066694;28;20023;-90
2022/09/24 04:30:12;;;;;;;6.18;4.57;;;;;;;;;;5073722;28;19913;-88
2022/09/24 04:32:44;;;;;;;5.97;4.43;;;;;;;;;;5052035;28;20021;-88
2022/09/24 04:35:09;;;;;;;6.68;3.90;;;;;;;;;;5063371;28;20048;-88
2022/09/24 04:37:35;;;;;;;;;;;;;;;;;;5056318;28;20033;-89
2022/09/24 04:40:01;;;;;;;7.55;4.07;;;;;;;;;;5053033;28;19912;-88
2022/09/24 04:42:27;;;;;;;7.18;3.80;;;;;;;;;;5073181;28;20089;-89
2022/09/24 04:44:52;;;;;;;;;;;;;;;;;;5057182;28;20119;-88
2022/09/24 04:47:18;;;;;;;5.03;3.30;;;;;;;;;;5075852;28;19909;-88
2022/09/24 04:49:44;;;;;;;3.53;2.92;;;;;;;;;;5068804;28;20040;-88
2022/09/24 04:52:10;;;;;;;;;;;;;;;;;;5064505;28;20036;-89
2022/09/24 04:54:35;;;;;;;7.43;3.10;;;;;;;;;;5074284;28;19995;-89
2022/09/24 04:57:00;;;;;;;;;;;;;;;;;;5038425;28;20084;-89
2022/09/24 04:59:27;;;;;;;3.42;2.70;;;;;;;;;;5059951;28;20395;-87
2022/09/24 05:01:53;;;;;;;;;;;;;;;;;;5047881;28;20477;-87
2022/09/24 05:04:19;;;;;;;4.95;2.63;;;;;;;;;;5076833;28;19912;-88
2022/09/24 05:06:44;;;;;;;;;;;;;;;;;;5064083;28;20040;-88
2022/09/24 05:09:11;;;;;;;3.35;2.22;;;;;;;;;;5064270;28;19920;-88
2022/09/24 05:11:37;;;;;;;3.55;2.00;;;;;;;;;;5051322;28;20048;-89
2022/09/24 05:14:04;;;;;;;4.32;2.85;;;;;;;;;;5037637;28;20037;-89
2022/09/24 05:16:30;;;;;;;3.05;2.10;;;;;;;;;;5042440;28;20025;-89
2022/09/24 05:18:57;;;;;;;;;;;;;;;;;;5067278;28;20064;-88
2022/09/24 05:21:22;;;;;;;2.92;2.08;;;;;;;;;;5074274;28;19931;-88
2022/09/24 05:23:48;;;;;;;;;;;;;;;;;;5064126;28;20036;-89
2022/09/24 05:29:19;;;;;;;3.00;1.80;;;;;;;;;;5019043;28;20042;-89
2022/09/24 05:31:47;;;;;;;4.53;2.20;;;;;;;;;;5050517;28;20093;-89
2022/09/24 05:34:27;;;;;;;2.65;1.52;;;;;;;;;;5274004;22;20072;-89
2022/09/24 05:36:53;;;;;;;2.85;1.90;;;;;;;;;;5037032;28;20041;-88
2022/09/24 05:39:20;;;;;;;3.63;1.83;;;;;;;;;;5037597;28;20061;-89
2022/09/24 05:41:45;;;;;;;;;;;;;;;;;;5036147;28;20036;-90
2022/09/24 05:44:12;;;;;;;2.75;1.80;;;;;;;;;;5046273;28;19913;-88
2022/09/24 05:46:40;;;;;;;2.15;1.60;;;;;;;;;;5036186;28;20024;-89
2022/09/24 05:49:06;;;;;;;;;;;;;;;;;;5025478;28;20052;-87
2022/09/24 05:51:32;;;;;;;3.53;2.17;;;;;;;;;;5052138;28;19928;-89
2022/09/24 05:53:58;;;;;;;;;;;;;;;;;;5045908;28;20044;-89
2022/09/24 05:56:23;;;;;;;2.40;1.65;;;;;;;;;;5047422;28;20284;-89
2022/09/24 05:58:49;;;;;;;;;;;;;;;;;;5020830;28;20044;-89
2022/09/24 06:01:14;;;;;;;2.88;1.80;;;;;;;;;;5037682;28;19916;-89
2022/09/24 06:03:40;;;;;;;;;;;;;;;;;;5019493;28;20044;-90
2022/09/24 06:06:08;;;;;;;3.30;2.00;;;;;;;;;;5051804;28;19908;-90
2022/09/24 06:08:35;;;;;;;2.58;1.50;;;;;;;;;;5049511;28;20041;-88
2022/09/24 06:11:03;;;;;;;;;;;;;;;;;;5034356;28;20040;-89
2022/09/24 06:13:32;;;;;;;3.65;1.80;;;;;;;;;;5057805;28;19921;-89
2022/09/24 06:16:01;;;;;;;3.80;1.80;;;;;;;;;;5153766;23;20053;-90
2022/09/24 06:18:27;;;;;;;2.97;1.80;;;;;;;;;;5059584;28;20084;-90
2022/09/24 06:20:53;;;;;;;;;;;;;;;;;;5064680;28;20020;-89
2022/09/24 06:23:23;;;;;;;3.47;1.70;;;;;;;;;;5078145;28;19913;-89
2022/09/24 06:25:50;;;;;;;;;;;;;;;;;;5066056;28;20034;-91
2022/09/24 06:28:15;;;;;;;4.70;1.80;;;;;;;;;;5066608;28;19913;-91
2022/09/24 06:30:41;;;;;;;;;;;;;;;;;;5208979;22;20057;-91
2022/09/24 06:33:10;;;;;;;3.13;1.50;;;;;;;;;;5064319;28;19917;-90
2022/09/24 06:35:35;;;;;;;2.15;1.50;;;;;;;;;;5069038;28;20009;-90
2022/09/24 06:38:01;;;;;;;;;;;;;;;;;;5054753;28;20036;-89
2022/09/24 06:40:26;;;;;;;2.72;1.50;;;;;;;;;;5061447;28;20010;-91
2022/09/24 06:42:52;;;;;;;;;;;;;;;;;;5041927;28;20037;-89
2022/09/24 06:45:21;;;;;;;2.97;1.40;;;;;;;;;;5074350;28;19985;-88
2022/09/24 06:47:53;;;;;;;2.28;1.52;;;;;;;;;;5051470;28;20033;-88
2022/09/24 06:50:19;;;;;;;2.45;1.50;;;;;;;;;;5041050;28;20476;-87
2022/09/24 06:52:44;;;;;;;;;;;;;;;;;;5039740;28;20043;-87
2022/09/24 06:55:10;;;;;;;2.10;1.20;;;;;;;;;;5067132;28;19916;-89
2022/09/24 06:57:35;;;;;;;;;;;;;;;;;;5049789;28;20017;-87
2022/09/24 07:00:01;;;;;;;2.17;1.15;;;;;;;;;;5064135;28;20318;-89
2022/09/24 07:02:29;;;;;;;2.08;1.00;;;;;;;;;;5065801;28;20036;-86
2022/09/24 07:04:56;;;;;;;1.80;1.13;;;;;;;;;;5048682;28;20040;-89
2022/09/24 07:07:33;;;;;;;;;;;;;;;;;;5047873;28;20024;-85
2022/09/24 07:10:03;;;;;;;2.05;1.20;;;;;;;;;;5072802;28;19934;-89
2022/09/24 07:12:29;;;;;;;1.98;1.15;;;;;;;;;;5053518;28;20037;-87
2022/09/24 07:14:55;;;;;;;;;;;;;;;;;;5040375;28;20047;-86
2022/09/24 07:17:20;;;;;;;2.33;1.30;;;;;;;;;;5050949;28;20004;-82
2022/09/24 07:19:46;;;;;;;;;;;;;;;;;;5036482;28;20033;-82
2022/09/24 07:22:11;;;;;;;3.80;1.35;;;;;;;;;;5054153;28;19908;-82
2022/09/24 07:24:37;;;;;;;;;;;;;;;;;;5046566;28;20448;-83
2022/09/24 07:27:03;;;;;;;3.08;1.65;;;;;;;;;;5052364;28;20438;-85
2022/09/24 07:29:28;;;;;;;2.42;1.40;;;;;;;;;;5052146;28;20043;-85
2022/09/24 07:31:54;;;;;;;;;;;;;;;;;;5041738;28;20435;-83
2022/09/24 07:34:19;;;;;;;3.60;2.08;;;;;;;;;;5054296;28;19921;-84
2022/09/24 07:36:44;;;;;;;;;;;;;;;;;;5062753;28;20530;-84
2022/09/24 07:39:10;;;;;;;3.92;1.92;;;;;;;;;;5046023;28;19913;-86
2022/09/24 07:41:37;;;;;;;;;;;;;;;;;;5036431;28;20020;-83
2022/09/24 07:44:03;;;;;;;3.58;2.03;;;;;;;;;;5044253;28;19917;-82
2022/09/24 07:46:29;;;;;;;;;;;;;;;;;;5032985;28;20040;-84
2022/09/24 07:48:57;;;;;;;3.00;1.45;;;;;;;;;;5042104;28;20379;-83
2022/09/24 07:51:26;;;;;;;2.88;1.40;;;;;;;;;;5037895;28;20447;-81
2022/09/24 07:53:52;;;;;;;2.72;1.42;;;;;;;;;;5042942;28;20044;-84
2022/09/24 07:56:17;;;;;;;;;;;;;;;;;;5059859;28;20017;-83
2022/09/24 07:58:42;;;;;;;2.60;1.23;;;;;;;;;;5039183;28;19917;-83
2022/09/24 08:01:08;;;;;;;;;;;;;;;;;;5047727;28;20017;-82
2022/09/24 08:03:33;;;;;;;2.85;1.13;;;;;;;;;;5024858;28;19913;-83
2022/09/24 08:06:00;;;;;;;;;;;;;;;;;;5037760;28;20171;-87
2022/09/24 08:08:26;;;;;;;2.65;1.25;;;;;;;;;;5033963;28;19919;-84
2022/09/24 08:10:51;;;;;;;;;;;;;;;;;;5051368;28;20033;-84
2022/09/24 08:13:17;;;;;;;2.40;1.20;;;;;;;;;;5069761;28;19939;-89
2022/09/24 08:15:42;;;;;;;;;;;;;;;;;;5048118;28;20379;-90
2022/09/24 08:18:08;;;;;;;5.50;1.30;;;;;;;;;;5069750;28;19892;-91
2022/09/24 08:20:33;;;;;;;;;;;;;;;;;;5053290;28;20084;-85
2022/09/24 08:23:02;;;;;;;2.97;1.20;;;;;;;;;;5059887;28;19920;-90
2022/09/24 08:25:28;;;;;;;1.77;1.00;;;;;;;;;;5038069;28;20088;-88
2022/09/24 08:27:54;;;;;;;;;;;;;;;;;;5038439;28;20037;-90
2022/09/24 08:30:21;;;;;;;1.90;1.00;;;;;;;;;;5077856;28;19924;-87
2022/09/24 08:32:47;;;;;;;3.47;1.00;;;;;;;;;;5042548;28;20033;-88
2022/09/24 08:35:14;;;;;;;;;;;;;;;;;;5039722;28;20160;-89
2022/09/24 08:37:40;;;;;;;2.97;0.80;;;;;;;;;;5044232;28;20348;-87
2022/09/24 08:40:05;;;;;;;;;;;;;;;;;;5032868;28;20021;-86
2022/09/24 08:42:43;;;;;;;3.53;1.10;;;;;;;;;;5046925;28;19911;-85
2022/09/24 08:47:56;;;;;;;2.53;1.10;;;;;;;;;;5040967;28;20102;-87
2022/09/24 08:50:23;;;;;;;2.90;1.02;;;;;;;;;;5040426;28;20020;-87
2022/09/24 08:53:09;;;;;;;2.65;1.20;;;;;;;;;;5053196;28;20036;-88
2022/09/24 08:55:47;;;;;;;2.70;1.00;;;;;;;;;;5053094;28;20056;-89
2022/09/24 08:58:13;;;;;;;3.67;1.20;;;;;;;;;;5034598;28;20117;-87
2022/09/24 09:00:38;;;;;;;;;;;;;;;;;;5035709;28;20028;-85
2022/09/24 09:03:05;;;;;;;3.35;1.30;;;;;;;;;;5055580;28;19996;-83
2022/09/24 09:05:31;;;;;;;3.83;1.40;;;;;;;;;;5052788;28;20058;-83
2022/09/24 09:07:57;;;;;;;;;;;;;;;;;;5052552;28;20500;-84
2022/09/24 09:10:27;;;;;;;3.50;1.33;;;;;;;;;;5071758;28;19912;-84
2022/09/24 09:13:09;;;;;;;3.95;1.35;;;;;;;;;;5053067;28;20053;-84
2022/09/24 09:15:35;;;;;;;3.97;1.55;;;;;;;;;;5047178;28;20036;-83
2022/09/24 09:18:06;;;;;;;2.25;1.20;;;;;;;;;;5052539;28;20029;-84
2022/09/24 09:20:33;;;;;;;7.15;1.40;;;;;;;;;;5072208;28;20036;-87
2022/09/24 09:23:00;;;;;;;3.45;1.38;;;;;;;;;;5033509;28;20377;-84
2022/09/24 09:25:28;;;;;;;1.48;0.90;;;;;;;;;;5040217;28;20488;-85
2022/09/24 09:27:57;;;;;;;4.10;1.00;;;;;;;;;;5041024;28;20032;-85
2022/09/24 09:30:22;;;;;;;2.30;1.00;;;;;;;;;;5056924;28;20052;-85
2022/09/24 09:32:47;;;;;;;;;;;;;;;;;;5060489;28;20032;-86
2022/09/24 09:35:19;;;;;;;2.63;0.90;;;;;;;;;;5068971;28;19924;-85
2022/09/24 09:37:45;;;;;;;3.25;0.80;;;;;;;;;;5046386;28;20048;-85
2022/09/24 09:40:10;;;;;;;;;;;;;;;;;;5049689;28;20023;-84
2022/09/24 09:42:36;;;;;;;3.05;0.88;;;;;;;;;;5066879;28;20440;-85
2022/09/24 09:45:01;;;;;;;;;;;;;;;;;;5040185;28;20025;-85
2022/09/24 09:47:36;;;;;;;4.63;1.02;;;;;;;;;;5069940;28;19956;-84
2022/09/24 09:50:04;;;;;;;3.33;1.00;;;;;;;;;;5060233;28;20124;-85
2022/09/24 09:52:30;;;;;;;4.10;1.10;;;;;;;;;;5060084;28;20036;-84
2022/09/24 09:54:55;;;;;;;;;;;;;;;;;;5057737;28;20048;-84
2022/09/24 09:57:22;;;;;;;1.80;0.70;;;;;;;;;;5057628;28;19915;-85
2022/09/24 09:59:49;;;;;;;2.22;0.88;;;;;;;;;;5017373;28;20052;-85
2022/09/24 10:02:23;;;;;;;2.47;0.93;;;;;;;;;;5061598;28;20081;-86
2022/09/24 10:04:51;;;;;;;2.38;0.90;;;;;;;;;;5041299;28;20408;-85
2022/09/24 10:07:17;;;;;;;2.20;0.85;;;;;;;;;;5041661;28;20070;-84
2022/09/24 10:09:42;;;;;;;;;;;;;;;;;;5036845;28;20049;-85
2022/09/24 10:12:14;;;;;;;3.47;1.08;;;;;;;;;;5064418;28;19916;-85
2022/09/24 10:14:40;;;;;;;4.40;1.00;;;;;;;;;;5074648;28;20446;-84
2022/09/24 10:17:05;;;;;;;;;;;;;;;;;;5056260;28;20020;-83
2022/09/24 10:19:32;;;;;;;3.10;1.38;;;;;;;;;;5075092;28;19957;-84
2022/09/24 10:21:58;;;;;;;1.92;1.00;;;;;;;;;;5042986;28;20021;-86
2022/09/24 10:24:24;;;;;;;;;;;;;;;;;;5042742;28;20032;-84
2022/09/24 10:26:49;;;;;;;4.78;1.10;;;;;;;;;;5075860;28;19912;-85
2022/09/24 10:31:59;;;;;;;4.45;1.10;;;;;;;;;;5059329;28;19925;-85
2022/09/24 10:34:25;;;;;;;;;;;;;;;;;;5077264;28;20051;-83
2022/09/24 10:36:51;;;;;;;4.68;1.27;;;;;;;;;;5078522;28;19912;-85
2022/09/24 10:39:16;;;;;;;;;;;;;;;;;;5042314;28;20028;-86
2022/09/24 10:41:52;;;;;;;3.80;1.10;;;;;;;;;;5077152;28;20284;-85
2022/09/24 10:44:17;;;;;;;3.72;1.30;;;;;;;;;;5038371;28;20047;-85
2022/09/24 10:46:43;;;;;;;;;;;;;;;;;;5058563;28;20028;-85
2022/09/24 10:49:28;;;;;;;1.35;0.77;;;;;;;;;;5077119;28;19995;-84
2022/09/24 10:52:00;;;;;;;2.33;1.08;;;;;;;;;;5053200;28;20040;-85
2022/09/24 10:54:46;;;;;;;2.00;0.73;;;;;;;;;;5070029;28;20653;-86
2022/09/24 10:57:32;;;;;;;2.03;1.08;;;;;;;;;;5050576;28;20036;-83
2022/09/24 11:00:14;;;;;;;1.67;0.80;;;;;;;;;;5065452;28;20102;-84
2022/09/24 11:02:39;;;;;;;2.83;1.23;;;;;;;;;;5040087;28;20044;-84
2022/09/24 11:05:05;;;;;;;;;;;;;;;;;;5075343;28;20048;-85
2022/09/24 11:07:30;;;;;;;1.02;0.80;;;;;;;;;;5074548;28;19935;-86
2022/09/24 11:09:55;;;;;;;;;;;;;;;;;;5053936;28;20112;-85
2022/09/24 11:12:28;;;;;;;1.42;0.80;;;;;;;;;;5052321;28;19920;-85
2022/09/24 11:15:03;;;;;;;1.88;0.93;;;;;;;;;;5046129;28;20055;-86
2022/09/24 11:17:47;;;;;;;4.63;1.40;;;;;;;;;;5050552;28;20059;-87
2022/09/24 11:20:25;;;;;;;3.53;1.35;;;;;;;;;;5049269;28;20404;-84
2022/09/24 11:22:57;;;;;;;2.08;1.13;;;;;;;;;;5031624;28;20067;-83
2022/09/24 11:25:41;;;;;;;2.75;1.17;;;;;;;;;;5074514;28;20472;-84
2022/09/24 11:28:22;;;;;;;2.35;0.93;;;;;;;;;;5074080;28;20384;-83
2022/09/24 11:30:47;;;;;;;2.83;0.85;;;;;;;;;;5056928;28;20076;-85
2022/09/24 11:33:13;;;;;;;;;;;;;;;;;;5057304;28;20066;-85
2022/09/24 11:35:45;;;;;;;2.13;1.20;;;;;;;;;;5053379;28;19919;-85
2022/09/24 11:38:29;;;;;;;2.38;1.30;;;;;;;;;;5071880;28;20042;-85
2022/09/24 11:40:59;;;;;;;2.10;1.02;;;;;;;;;;5056928;28;20032;-85
2022/09/24 11:43:32;;;;;;;2.95;0.90;;;;;;;;;;5057141;28;20060;-84
2022/09/24 11:46:01;;;;;;;3.22;1.08;;;;;;;;;;5075077;28;20064;-83
2022/09/24 11:48:26;;;;;;;2.97;1.20;;;;;;;;;;5074340;28;20012;-85
2022/09/24 11:50:52;;;;;;;;;;;;;;;;;;5057762;28;20039;-84
2022/09/24 11:53:25;;;;;;;1.50;1.00;;;;;;;;;;5055102;28;20288;-85
2022/09/24 11:55:54;;;;;;;1.95;1.10;;;;;;;;;;5055134;28;20123;-86
2022/09/24 11:58:20;;;;;;;1.58;0.90;;;;;;;;;;5042776;28;20036;-85
2022/09/24 12:00:45;;;;;;;;;;;;;;;;;;5041549;28;20029;-85
2022/09/24 12:03:16;;;;;;;1.35;0.80;;;;;;;;;;5054522;28;19908;-85
2022/09/24 12:05:48;;;;;;;2.30;1.08;;;;;;;;;;5070755;28;20078;-84
2022/09/24 12:08:13;;;;;;;2.05;1.00;;;;;;;;;;5084354;28;20542;-85
2022/09/24 12:10:39;;;;;;;;;;;;;;;;;;5059460;28;20053;-86
2022/09/24 12:13:11;;;;;;;3.83;1.38;;;;;;;;;;5055795;28;20010;-84
2022/09/24 12:15:42;;;;;;;3.25;1.35;;;;;;;;;;5055777;28;20035;-84
2022/09/24 12:18:10;;;;;;;2.95;1.30;;;;;;;;;;5074777;28;20039;-83
2022/09/24 12:20:42;;;;;;;1.92;1.10;;;;;;;;;;5052983;28;20012;-85
2022/09/24 12:23:08;;;;;;;1.38;0.90;;;;;;;;;;5073409;28;20028;-84
2022/09/24 12:25:41;;;;;;;0.77;0.70;;;;;;;;;;5057094;28;20017;-84
2022/09/24 12:28:13;;;;;;;2.70;0.80;;;;;;;;;;5056296;28;20089;-84
2022/09/24 12:33:43;;;;;;;4.18;1.50;;;;;;;;;;5057662;28;20068;-84
2022/09/24 12:36:16;;;;;;;3.28;1.42;;;;;;;;;;5023765;28;20039;-83
2022/09/24 12:38:51;;;;;;;2.60;1.60;;;;;;;;;;5053183;28;20025;-84
2022/09/24 12:41:26;;;;;;;3.78;1.23;;;;;;;;;;5073940;28;20121;-85
2022/09/24 12:44:17;;;;;;;2.22;1.20;;;;;;;;;;5073677;28;20413;-85
2022/09/24 12:46:53;;;;;;;3.55;1.00;;;;;;;;;;5050563;28;20119;-86
2022/09/24 12:49:25;;;;;;;3.38;0.90;;;;;;;;;;5053544;28;20042;-85
2022/09/24 12:52:11;;;;;;;2.55;1.00;;;;;;;;;;5058673;28;20043;-86
2022/09/24 12:54:36;;;;;;;2.33;1.20;;;;;;;;;;5035306;28;20044;-83
2022/09/24 12:57:02;;;;;;;;;;;;;;;;;;5074993;28;20021;-84
2022/09/24 12:59:28;;;;;;;5.55;1.20;;;;;;;;;;5046652;28;20003;-83
2022/09/24 13:01:53;;;;;;;;;;;;;;;;;;5057100;28;20020;-84
2022/09/24 13:04:19;;;;;;;4.07;1.23;;;;;;;;;;5058210;28;20398;-86
2022/09/24 13:06:46;;;;;;;;;;;;;;;;;;5064151;28;20484;-87
2022/09/24 13:09:31;;;;;;;1.58;0.93;;;;;;;;;;5065623;28;19912;-85
2022/09/24 13:12:20;;;;;;;2.13;0.90;;;;;;;;;;5081613;28;20067;-85
2022/09/24 13:14:51;;;;;;;1.52;0.90;;;;;;;;;;5043592;28;20124;-85
2022/09/24 13:17:17;;;;;;;2.42;0.93;;;;;;;;;;5048803;28;20059;-85
2022/09/24 13:19:43;;;;;;;;;;;;;;;;;;5037597;28;20021;-84
2022/09/24 13:22:29;;;;;;;1.60;0.80;;;;;;;;;;5063637;28;20007;-84
2022/09/24 13:25:07;;;;;;;1.95;0.90;;;;;;;;;;5067098;28;20051;-84
2022/09/24 13:27:36;;;;;;;3.33;1.00;;;;;;;;;;5059307;28;20123;-85
2022/09/24 13:30:11;;;;;;;2.38;1.20;;;;;;;;;;5075739;28;20049;-82
2022/09/24 13:32:37;;;;;;;1.88;1.10;;;;;;;;;;5074926;28;20395;-83
2022/09/24 13:35:05;;;;;;;1.60;0.90;;;;;;;;;;5036442;28;20040;-84
2022/09/24 13:37:34;;;;;;;4.78;1.17;;;;;;;;;;5076812;28;20032;-84
2022/09/24 13:40:00;;;;;;;2.03;1.20;;;;;;;;;;5042538;28;20078;-83
2022/09/24 13:42:30;;;;;;;1.50;0.95;;;;;;;;;;5059701;28;20029;-83
2022/09/24 13:44:56;;;;;;;2.50;0.82;;;;;;;;;;5042712;28;20071;-84
2022/09/24 13:47:21;;;;;;;;;;;;;;;;;;5077136;28;20475;-83
2022/09/24 13:49:47;;;;;;;4.20;1.20;;;;;;;;;;5058506;28;19953;-82
2022/09/24 13:52:12;;;;;;;;;;;;;;;;;;5057158;28;20410;-82
2022/09/24 13:54:45;;;;;;;2.45;1.40;;;;;;;;;;5074242;28;19912;-82
2022/09/24 13:57:11;;;;;;;3.05;1.50;;;;;;;;;;5037745;28;20039;-83
2022/09/24 13:59:37;;;;;;;4.07;1.10;;;;;;;;;;5051381;28;20074;-83
2022/09/24 14:02:02;;;;;;;;;;;;;;;;;;5046849;28;20029;-86
2022/09/24 14:04:28;;;;;;;1.52;0.80;;;;;;;;;;5061658;28;19991;-85
2022/09/24 14:06:53;;;;;;;;;;;;;;;;;;5054590;28;20380;-86
2022/09/24 14:09:24;;;;;;;1.52;0.80;;;;;;;;;;5064696;28;19915;-84
2022/09/24 14:11:51;;;;;;;1.90;1.00;;;;;;;;;;5055041;28;20042;-85
2022/09/24 14:14:20;;;;;;;4.88;1.52;;;;;;;;;;5047123;28;20029;-85
2022/09/24 14:16:45;;;;;;;2.28;1.20;;;;;;;;;;5031195;28;20029;-86
2022/09/24 14:19:11;;;;;;;;;;;;;;;;;;5042862;28;20021;-86
2022/09/24 14:21:38;;;;;;;2.83;1.15;;;;;;;;;;5060543;28;20291;-84
2022/09/24 14:24:23;;;;;;;2.47;0.90;;;;;;;;;;5072686;28;20038;-85
2022/09/24 14:26:53;;;;;;;4.20;1.20;;;;;;;;;;5055141;28;20071;-85
2022/09/24 14:29:26;;;;;;;5.07;1.63;;;;;;;;;;5058699;28;20096;-87
2022/09/24 14:31:53;;;;;;;5.40;1.50;;;;;;;;;;5025316;28;20152;-86
2022/09/24 14:34:22;;;;;;;3.03;0.90;;;;;;;;;;5039178;28;20558;-84
2022/09/24 14:36:48;;;;;;;2.33;0.82;;;;;;;;;;5059204;28;20025;-83
2022/09/24 14:39:13;;;;;;;;;;;;;;;;;;5044276;28;20021;-84
2022/09/24 14:41:38;;;;;;;2.15;1.02;;;;;;;;;;5049411;28;20483;-86
2022/09/24 14:44:23;;;;;;;9.68;4.70;;;;;;;;;;5022692;28;20017;-86
2022/09/24 14:46:58;;;;;;;4.15;1.10;;;;;;;;;;5062113;28;20510;-85
2022/09/24 14:49:23;;;;;;;2.55;0.93;;;;;;;;;;5046459;28;20092;-85
2022/09/24 14:51:48;;;;;;;;;;;;;;;;;;5028323;28;20047;-86
2022/09/24 14:54:22;;;;;;;3.05;1.20;;;;;;;;;;5041122;28;20343;-85
2022/09/24 14:56:48;;;;;;;3.00;0.98;;;;;;;;;;5044138;28;20492;-85
2022/09/24 14:59:15;;;;;;;1.92;0.90;;;;;;;;;;5051142;28;20056;-87
2022/09/24 15:01:40;;;;;;;4.45;1.92;;;;;;;;;;5048378;28;20056;-86
2022/09/24 15:04:06;;;;;;;;;;;;;;;;;;5053135;28;20484;-87
2022/09/24 15:06:32;;;;;;;1.42;0.70;;;;;;;;;;5048886;28;19923;-86
2022/09/24 15:09:01;;;;;;;2.55;0.85;;;;;;;;;;5026098;28;20025;-85
2022/09/24 15:11:27;;;;;;;1.73;0.70;;;;;;;;;;5054748;28;20092;-85
2022/09/24 15:14:00;;;;;;;1.15;0.75;;;;;;;;;;5033956;28;20033;-85
2022/09/24 15:16:30;;;;;;;1.45;0.70;;;;;;;;;;5038200;28;20159;-85
2022/09/24 15:19:16;;;;;;;3.78;0.80;;;;;;;;;;5041386;28;20029;-86
2022/09/24 15:21:42;;;;;;;2.83;0.90;;;;;;;;;;5058035;28;20041;-86
2022/09/24 15:24:08;;;;;;;;;;;;;;;;;;5058986;28;20021;-88
2022/09/24 15:26:34;;;;;;;2.28;0.80;;;;;;;;;;5052512;28;19935;-86
2022/09/24 15:29:00;;;;;;;;;;;;;;;;;;5036947;28;20040;-86
2022/09/24 15:31:25;;;;;;;1.80;0.80;;;;;;;;;;5055714;28;19967;-87
2022/09/24 15:33:51;;;;;;;;;;;;;;;;;;5048851;28;20058;-89